createdAt,value
2022-12-29T00:00:13.977Z,100.00
2022-12-29T00:02:41.560Z,100.00
2022-12-29T00:05:08.696Z,100.00
2022-12-29T00:07:35.665Z,100.00
2022-12-29T00:10:02.506Z,100.00
2022-12-29T00:12:49.318Z,100.00
2022-12-29T00:15:35.129Z,100.00
2022-12-29T00:18:02.301Z,100.00
2022-12-29T00:20:47.955Z,100.00
2022-12-29T00:23:33.313Z,100.00
2022-12-29T00:26:23.211Z,100.00
2022-12-29T00:29:09.782Z,100.00
2022-12-29T00:31:55.164Z,100.00
2022-12-29T00:34:40.394Z,100.00
2022-12-29T00:37:07.287Z,100.00
2022-12-29T00:39:53.156Z,100.00
2022-12-29T00:42:38.347Z,100.00
2022-12-29T00:45:05.873Z,100.00
2022-12-29T00:47:32.660Z,100.00
2022-12-29T00:49:59.558Z,100.00
2022-12-29T00:52:27.707Z,100.00
2022-12-29T00:54:54.482Z,100.00
2022-12-29T00:57:21.293Z,100.00
2022-12-29T00:59:48.224Z,100.00
2022-12-29T01:02:16.617Z,100.00
2022-12-29T01:04:43.665Z,100.00
2022-12-29T01:07:10.445Z,100.00
2022-12-29T01:09:56.331Z,100.00
2022-12-29T01:12:41.619Z,100.00
2022-12-29T01:15:12.699Z,100.00
2022-12-29T01:17:39.615Z,100.00
2022-12-29T01:20:07.435Z,100.00
2022-12-29T01:22:35.569Z,100.00
2022-12-29T01:25:02.345Z,100.00
2022-12-29T01:27:29.240Z,100.00
2022-12-29T01:29:56.099Z,100.00
2022-12-29T01:32:23.339Z,100.00
2022-12-29T01:34:50.344Z,100.00
2022-12-29T01:37:17.314Z,100.00
2022-12-29T01:39:45.123Z,100.00
2022-12-29T01:42:18.733Z,100.00
2022-12-29T01:44:52.677Z,100.00
2022-12-29T01:47:27.596Z,100.00
2022-12-29T01:49:56.613Z,100.00
2022-12-29T01:52:25.286Z,100.00
2022-12-29T01:54:56.276Z,100.00
2022-12-29T01:57:30.744Z,100.00
2022-12-29T02:00:16.400Z,100.00
2022-12-29T02:02:51.834Z,100.00
2022-12-29T02:05:41.163Z,100.00
2022-12-29T02:08:10.152Z,100.00
2022-12-29T02:10:37.765Z,100.00
2022-12-29T02:13:04.731Z,100.00
2022-12-29T02:15:59.821Z,100.00
2022-12-29T02:18:44.619Z,100.00
2022-12-29T02:21:30.682Z,100.00
2022-12-29T02:24:41.086Z,100.00
2022-12-29T02:27:12.194Z,100.00
2022-12-29T02:29:54.235Z,100.00
2022-12-29T02:32:44.481Z,100.00
2022-12-29T02:35:45.476Z,100.00
2022-12-29T02:38:34.234Z,100.00
2022-12-29T02:41:27.810Z,100.00
2022-12-29T02:44:11.562Z,100.00
2022-12-29T02:46:55.600Z,100.00
2022-12-29T02:50:00.606Z,100.00
2022-12-29T02:52:43.734Z,100.00
2022-12-29T02:55:12.668Z,100.00
2022-12-29T02:57:39.431Z,100.00
2022-12-29T03:00:18.249Z,100.00
2022-12-29T03:03:03.993Z,100.00
2022-12-29T03:06:06.156Z,100.00
2022-12-29T03:08:49.543Z,100.00
2022-12-29T03:11:36.518Z,100.00
2022-12-29T03:14:32.949Z,100.00
2022-12-29T03:17:17.396Z,100.00
2022-12-29T03:19:51.597Z,100.00
2022-12-29T03:22:28.573Z,100.00
2022-12-29T03:25:22.633Z,100.00
2022-12-29T03:27:58.313Z,100.00
2022-12-29T03:30:30.535Z,100.00
2022-12-29T03:33:03.489Z,100.00
2022-12-29T03:35:35.842Z,100.00
2022-12-29T03:38:19.755Z,100.00
2022-12-29T03:40:51.261Z,100.00
2022-12-29T03:43:19.025Z,100.00
2022-12-29T03:45:47.248Z,100.00
2022-12-29T03:48:14.198Z,100.00
2022-12-29T03:50:41.785Z,100.00
2022-12-29T03:53:08.537Z,100.00
2022-12-29T03:55:35.471Z,100.00
2022-12-29T03:58:02.814Z,100.00
2022-12-29T04:00:50.642Z,100.00
2022-12-29T04:03:18.114Z,100.00
2022-12-29T04:05:45.387Z,100.00
2022-12-29T04:08:12.585Z,100.00
2022-12-29T04:10:39.628Z,100.00
2022-12-29T04:13:07.544Z,100.00
2022-12-29T04:15:35.650Z,100.00
2022-12-29T04:18:02.685Z,100.00
2022-12-29T04:20:48.012Z,100.00
2022-12-29T04:23:15.000Z,100.00
2022-12-29T04:25:42.132Z,100.00
2022-12-29T04:28:10.138Z,100.00
2022-12-29T04:30:54.989Z,100.00
2022-12-29T04:33:26.390Z,100.00
2022-12-29T04:35:55.033Z,100.00
2022-12-29T04:38:24.548Z,100.00
2022-12-29T04:40:52.419Z,100.00
2022-12-29T04:43:23.259Z,100.00
2022-12-29T04:46:19.579Z,100.00
2022-12-29T04:48:54.394Z,100.00
2022-12-29T04:51:39.714Z,100.00
2022-12-29T04:54:09.470Z,100.00
2022-12-29T04:56:37.195Z,100.00
2022-12-29T04:59:04.054Z,100.00
2022-12-29T05:01:30.973Z,100.00
2022-12-29T05:03:58.533Z,100.00
2022-12-29T05:06:25.821Z,100.00
2022-12-29T05:08:52.540Z,100.00
2022-12-29T05:11:20.391Z,100.00
2022-12-29T05:13:49.417Z,100.00
2022-12-29T05:16:17.766Z,100.00
2022-12-29T05:18:45.520Z,100.00
2022-12-29T05:21:12.376Z,100.00
2022-12-29T05:23:41.224Z,100.00
2022-12-29T05:26:08.220Z,100.00
2022-12-29T05:28:57.707Z,100.00
2022-12-29T05:31:24.685Z,100.00
2022-12-29T05:33:51.548Z,100.00
2022-12-29T05:36:19.156Z,100.00
2022-12-29T05:38:49.961Z,100.00
2022-12-29T05:41:18.350Z,100.00
2022-12-29T05:44:00.491Z,100.00
2022-12-29T05:46:45.802Z,100.00
2022-12-29T05:49:19.349Z,100.00
2022-12-29T05:51:59.077Z,100.00
2022-12-29T05:54:25.935Z,100.00
2022-12-29T05:56:52.740Z,100.00
2022-12-29T05:59:20.973Z,100.00
2022-12-29T06:01:48.637Z,100.00
2022-12-29T06:04:15.676Z,100.00
2022-12-29T06:06:42.708Z,100.00
2022-12-29T06:09:16.597Z,100.00
2022-12-29T06:11:44.011Z,100.00
2022-12-29T06:14:10.986Z,100.00
2022-12-29T06:16:37.884Z,100.00
2022-12-29T06:19:08.752Z,100.00
2022-12-29T06:21:36.311Z,100.00
2022-12-29T06:24:03.238Z,100.00
2022-12-29T06:26:30.871Z,100.00
2022-12-29T06:28:57.693Z,100.00
2022-12-29T06:31:24.494Z,100.00
2022-12-29T06:33:51.342Z,100.00
2022-12-29T06:36:18.169Z,100.00
2022-12-29T06:38:45.084Z,100.00
2022-12-29T06:41:12.759Z,100.00
2022-12-29T06:44:08.925Z,100.00
2022-12-29T06:46:58.514Z,100.00
2022-12-29T06:49:25.436Z,100.00
2022-12-29T06:51:52.163Z,100.00
2022-12-29T06:54:19.037Z,100.00
2022-12-29T06:56:45.867Z,100.00
2022-12-29T06:59:12.865Z,100.00
2022-12-29T07:01:39.669Z,100.00
2022-12-29T07:04:06.604Z,100.00
2022-12-29T07:06:33.936Z,100.00
2022-12-29T07:09:01.003Z,100.00
2022-12-29T07:11:27.725Z,100.00
2022-12-29T07:13:54.473Z,100.00
2022-12-29T07:16:21.415Z,100.00
2022-12-29T07:18:48.248Z,100.00
2022-12-29T07:21:15.212Z,100.00
2022-12-29T07:23:42.018Z,100.00
2022-12-29T07:26:12.673Z,100.00
2022-12-29T07:28:39.823Z,100.00
2022-12-29T07:31:24.809Z,100.00
2022-12-29T07:33:51.625Z,100.00
2022-12-29T07:36:18.529Z,100.00
2022-12-29T07:38:45.413Z,100.00
2022-12-29T07:41:12.293Z,100.00
2022-12-29T07:43:39.292Z,100.00
2022-12-29T07:46:55.335Z,100.00
2022-12-29T07:49:22.059Z,100.00
2022-12-29T07:51:48.840Z,100.00
2022-12-29T07:54:19.369Z,100.00
2022-12-29T07:56:46.794Z,100.00
2022-12-29T07:59:13.597Z,100.00
2022-12-29T08:01:40.582Z,100.00
2022-12-29T08:04:07.658Z,100.00
2022-12-29T08:06:34.557Z,100.00
2022-12-29T08:09:09.809Z,100.00
2022-12-29T08:11:41.336Z,100.00
2022-12-29T08:14:08.345Z,100.00
2022-12-29T08:16:35.402Z,100.00
2022-12-29T08:19:02.810Z,100.00
2022-12-29T08:21:29.863Z,100.00
2022-12-29T08:23:57.103Z,100.00
2022-12-29T08:26:24.209Z,100.00
2022-12-29T08:28:53.696Z,100.00
2022-12-29T08:31:20.891Z,100.00
2022-12-29T08:33:47.823Z,100.00
2022-12-29T08:36:14.802Z,100.00
2022-12-29T08:38:41.712Z,100.00
2022-12-29T08:41:08.551Z,100.00
2022-12-29T08:43:35.277Z,100.00
2022-12-29T08:46:02.208Z,100.00
2022-12-29T08:48:29.098Z,100.00
2022-12-29T08:50:56.162Z,100.00
2022-12-29T08:53:22.990Z,100.00
2022-12-29T08:56:03.971Z,100.00
2022-12-29T08:58:35.775Z,100.00
2022-12-29T09:01:02.938Z,100.00
2022-12-29T09:04:04.492Z,100.00
2022-12-29T09:06:17.873Z,100.00
2022-12-29T09:08:45.452Z,100.00
2022-12-29T09:11:14.513Z,100.00
2022-12-29T09:13:41.278Z,100.00
2022-12-29T09:16:08.393Z,100.00
2022-12-29T09:18:35.583Z,100.00
2022-12-29T09:21:04.853Z,100.00
2022-12-29T09:23:32.732Z,100.00
2022-12-29T09:25:59.511Z,100.00
2022-12-29T09:28:26.303Z,100.00
2022-12-29T09:30:53.619Z,100.00
2022-12-29T09:33:20.369Z,100.00
2022-12-29T09:35:52.860Z,100.00
2022-12-29T09:38:19.634Z,100.00
2022-12-29T09:40:52.987Z,100.00
2022-12-29T09:43:53.862Z,100.00
2022-12-29T09:46:37.331Z,100.00
2022-12-29T09:49:35.253Z,100.00
2022-12-29T09:52:12.299Z,100.00
2022-12-29T09:54:53.710Z,100.00
2022-12-29T09:57:28.662Z,100.00
2022-12-29T10:00:05.712Z,100.00
2022-12-29T10:02:45.258Z,100.00
2022-12-29T10:06:00.500Z,100.00
2022-12-29T10:08:38.875Z,100.00
2022-12-29T10:11:21.020Z,100.00
2022-12-29T10:14:10.882Z,100.00
2022-12-29T10:17:25.388Z,100.00
2022-12-29T10:20:06.749Z,100.00
2022-12-29T10:22:49.244Z,100.00
2022-12-29T10:25:21.971Z,100.00
2022-12-29T10:27:51.045Z,100.00
2022-12-29T10:30:19.294Z,100.00
2022-12-29T10:32:59.568Z,100.00
2022-12-29T10:35:41.467Z,100.00
2022-12-29T10:38:26.538Z,100.00
2022-12-29T10:41:12.915Z,100.00
2022-12-29T10:43:46.664Z,100.00
2022-12-29T10:46:35.597Z,100.00
2022-12-29T10:49:03.011Z,100.00
2022-12-29T10:51:35.517Z,100.00
2022-12-29T10:54:06.955Z,100.00
2022-12-29T10:56:36.764Z,100.00
2022-12-29T10:59:21.693Z,100.00
2022-12-29T11:02:02.823Z,100.00
2022-12-29T11:04:56.587Z,100.00
2022-12-29T11:07:27.256Z,100.00
2022-12-29T11:09:55.264Z,100.00
2022-12-29T11:12:32.163Z,100.00
2022-12-29T11:15:10.938Z,100.00
2022-12-29T11:17:53.549Z,100.00
2022-12-29T11:20:40.420Z,100.00
2022-12-29T11:23:22.524Z,67.98
2022-12-29T11:26:31.734Z,44.19
2022-12-29T11:29:09.892Z,36.76
2022-12-29T11:31:44.933Z,34.55
2022-12-29T11:34:19.520Z,33.16
2022-12-29T11:36:47.635Z,31.38
2022-12-29T11:39:35.187Z,30.24
2022-12-29T11:42:04.032Z,28.62
2022-12-29T11:44:38.345Z,27.25
2022-12-29T11:47:09.017Z,27.96
2022-12-29T11:49:35.961Z,28.49
2022-12-29T11:52:02.829Z,28.14
2022-12-29T11:54:37.237Z,30.36
2022-12-29T11:57:19.465Z,32.42
2022-12-29T11:59:52.255Z,32.96
2022-12-29T12:02:22.416Z,33.87
2022-12-29T12:04:54.076Z,35.51
2022-12-29T12:07:43.906Z,36.11
2022-12-29T12:10:43.451Z,39.60
2022-12-29T12:13:18.375Z,45.52
2022-12-29T12:15:56.197Z,49.42
2022-12-29T12:18:38.547Z,53.78
2022-12-29T12:21:14.048Z,58.50
2022-12-29T12:24:05.202Z,62.32
2022-12-29T12:26:45.009Z,65.18
2022-12-29T12:29:19.630Z,64.53
2022-12-29T12:32:00.745Z,55.72
2022-12-29T12:34:34.938Z,55.15
2022-12-29T12:37:16.530Z,60.23
2022-12-29T12:40:14.741Z,63.54
2022-12-29T12:43:04.307Z,66.57
2022-12-29T12:46:20.743Z,69.41
2022-12-29T12:49:27.853Z,73.46
2022-12-29T12:52:40.450Z,78.12
2022-12-29T12:55:10.382Z,86.62
2022-12-29T12:58:01.897Z,87.08
2022-12-29T13:00:33.994Z,90.00
2022-12-29T13:03:06.660Z,91.85
2022-12-29T13:06:03.337Z,97.06
2022-12-29T13:08:50.197Z,97.84
2022-12-29T13:11:34.335Z,100.00
2022-12-29T13:14:19.498Z,100.00
2022-12-29T13:17:24.299Z,100.00
2022-12-29T13:19:54.152Z,100.00
2022-12-29T13:22:39.221Z,100.00
2022-12-29T13:25:18.292Z,100.00
2022-12-29T13:27:54.060Z,100.00
2022-12-29T13:30:23.945Z,100.00
2022-12-29T13:32:57.860Z,100.00
2022-12-29T13:35:34.042Z,100.00
2022-12-29T13:38:14.777Z,100.00
2022-12-29T13:40:48.194Z,100.00
2022-12-29T13:43:17.250Z,100.00
2022-12-29T13:45:46.340Z,100.00
2022-12-29T13:48:18.579Z,100.00
2022-12-29T13:50:53.430Z,100.00
2022-12-29T13:53:32.309Z,100.00
2022-12-29T13:56:08.848Z,100.00
2022-12-29T13:58:45.773Z,99.39
2022-12-29T14:01:21.403Z,91.64
2022-12-29T14:03:57.365Z,97.72
2022-12-29T14:06:30.441Z,100.00
2022-12-29T14:08:57.239Z,100.00
2022-12-29T14:11:32.144Z,100.00
2022-12-29T14:14:00.596Z,100.00
2022-12-29T14:16:35.833Z,100.00
2022-12-29T14:19:16.665Z,100.00
2022-12-29T14:21:53.848Z,100.00
2022-12-29T14:24:33.761Z,100.00
2022-12-29T14:27:00.594Z,100.00
2022-12-29T14:29:30.322Z,100.00
2022-12-29T14:31:57.307Z,100.00
2022-12-29T14:34:29.933Z,100.00
2022-12-29T14:37:00.405Z,100.00
2022-12-29T14:39:39.279Z,100.00
2022-12-29T14:42:11.856Z,100.00
2022-12-29T14:45:01.444Z,100.00
2022-12-29T14:47:31.445Z,100.00
2022-12-29T14:50:09.337Z,100.00
2022-12-29T14:53:06.002Z,100.00
2022-12-29T14:55:50.832Z,100.00
2022-12-29T14:58:23.326Z,100.00
2022-12-29T15:00:50.825Z,100.00
2022-12-29T15:03:33.974Z,100.00
2022-12-29T15:06:12.470Z,100.00
2022-12-29T15:08:58.077Z,100.00
2022-12-29T15:11:45.796Z,100.00
2022-12-29T15:14:35.792Z,100.00
2022-12-29T15:17:03.038Z,100.00
2022-12-29T15:19:30.034Z,100.00
2022-12-29T15:21:57.881Z,100.00
2022-12-29T15:24:25.597Z,100.00
2022-12-29T15:26:55.260Z,100.00
2022-12-29T15:29:38.179Z,100.00
2022-12-29T15:32:40.511Z,100.00
2022-12-29T15:35:31.534Z,100.00
2022-12-29T15:37:59.986Z,100.00
2022-12-29T15:40:31.255Z,100.00
2022-12-29T15:43:07.655Z,100.00
2022-12-29T15:45:36.489Z,100.00
2022-12-29T15:48:05.643Z,100.00
2022-12-29T15:50:35.193Z,100.00
2022-12-29T15:53:03.105Z,100.00
2022-12-29T15:55:39.228Z,100.00
2022-12-29T15:58:18.584Z,100.00
2022-12-29T16:00:50.170Z,100.00
2022-12-29T16:03:17.782Z,100.00
2022-12-29T16:05:52.368Z,100.00
2022-12-29T16:08:38.140Z,100.00
2022-12-29T16:11:37.484Z,100.00
2022-12-29T16:14:10.605Z,100.00
2022-12-29T16:16:40.882Z,100.00
2022-12-29T16:19:22.633Z,100.00
2022-12-29T16:21:49.899Z,100.00
2022-12-29T16:24:19.949Z,100.00
2022-12-29T16:26:51.107Z,100.00
2022-12-29T16:29:20.438Z,100.00
2022-12-29T16:32:01.578Z,100.00
2022-12-29T16:34:41.005Z,100.00
2022-12-29T16:37:26.463Z,100.00
2022-12-29T16:39:53.269Z,100.00
2022-12-29T16:42:47.138Z,100.00
2022-12-29T16:45:22.275Z,100.00
2022-12-29T16:48:07.322Z,100.00
2022-12-29T16:50:36.099Z,100.00
2022-12-29T16:53:04.553Z,100.00
2022-12-29T16:55:31.950Z,100.00
2022-12-29T16:58:00.153Z,100.00
2022-12-29T17:00:30.086Z,100.00
2022-12-29T17:03:00.690Z,100.00
2022-12-29T17:05:27.528Z,100.00
2022-12-29T17:07:54.338Z,100.00
2022-12-29T17:10:21.067Z,100.00
2022-12-29T17:12:49.745Z,100.00
2022-12-29T17:15:27.180Z,100.00
2022-12-29T17:17:56.914Z,100.00
2022-12-29T17:20:29.651Z,100.00
2022-12-29T17:22:57.755Z,100.00
2022-12-29T17:25:34.927Z,100.00
2022-12-29T17:28:05.526Z,100.00
2022-12-29T17:30:34.967Z,100.00
2022-12-29T17:33:08.825Z,100.00
2022-12-29T17:35:35.903Z,100.00
2022-12-29T17:38:02.728Z,100.00
2022-12-29T17:40:32.656Z,100.00
2022-12-29T17:43:01.049Z,100.00
2022-12-29T17:45:30.555Z,100.00
2022-12-29T17:48:02.056Z,100.00
2022-12-29T17:50:30.778Z,100.00
2022-12-29T17:53:11.855Z,100.00
2022-12-29T17:55:38.938Z,100.00
2022-12-29T17:58:27.839Z,100.00
2022-12-29T18:00:57.555Z,100.00
2022-12-29T18:03:30.868Z,100.00
2022-12-29T18:05:58.252Z,100.00
2022-12-29T18:08:25.613Z,100.00
2022-12-29T18:10:55.271Z,100.00
2022-12-29T18:13:24.204Z,100.00
2022-12-29T18:15:51.990Z,100.00
2022-12-29T18:18:21.472Z,100.00
2022-12-29T18:20:50.816Z,100.00
2022-12-29T18:23:21.800Z,100.00
2022-12-29T18:26:02.348Z,100.00
2022-12-29T18:28:29.594Z,100.00
2022-12-29T18:30:59.090Z,100.00
2022-12-29T18:33:26.887Z,100.00
2022-12-29T18:35:59.692Z,100.00
2022-12-29T18:38:27.377Z,100.00
2022-12-29T18:40:54.475Z,100.00
2022-12-29T18:43:21.635Z,100.00
2022-12-29T18:45:49.271Z,100.00
2022-12-29T18:48:17.612Z,100.00
2022-12-29T18:50:45.338Z,100.00
2022-12-29T18:53:16.915Z,100.00
2022-12-29T18:55:43.780Z,100.00
2022-12-29T18:58:10.528Z,100.00
2022-12-29T19:00:37.539Z,100.00
2022-12-29T19:03:04.658Z,100.00
2022-12-29T19:05:37.681Z,100.00
2022-12-29T19:08:05.163Z,100.00
2022-12-29T19:10:32.169Z,100.00
2022-12-29T19:12:59.283Z,100.00
2022-12-29T19:15:31.675Z,100.00
2022-12-29T19:18:41.564Z,100.00
2022-12-29T19:20:50.524Z,100.00
2022-12-29T19:23:20.325Z,100.00
2022-12-29T19:25:47.705Z,100.00
2022-12-29T19:28:24.453Z,100.00
2022-12-29T19:30:52.972Z,100.00
2022-12-29T19:33:23.529Z,100.00
2022-12-29T19:35:51.388Z,100.00
2022-12-29T19:38:18.973Z,100.00
2022-12-29T19:40:50.882Z,100.00
2022-12-29T19:43:18.805Z,100.00
2022-12-29T19:45:45.941Z,100.00
2022-12-29T19:48:15.792Z,100.00
2022-12-29T19:50:43.717Z,100.00
2022-12-29T19:53:11.009Z,100.00
2022-12-29T19:55:37.917Z,100.00
2022-12-29T19:58:04.833Z,100.00
2022-12-29T20:00:31.638Z,100.00
2022-12-29T20:02:58.645Z,100.00
2022-12-29T20:05:25.445Z,100.00
2022-12-29T20:07:52.226Z,100.00
2022-12-29T20:10:19.385Z,100.00
2022-12-29T20:12:46.183Z,100.00
2022-12-29T20:15:15.063Z,100.00
2022-12-29T20:20:28.640Z,100.00
2022-12-29T20:22:55.991Z,100.00
2022-12-29T20:28:09.643Z,100.00
2022-12-29T20:30:37.036Z,100.00
2022-12-29T20:33:07.962Z,100.00
2022-12-29T20:35:35.866Z,100.00
2022-12-29T20:38:02.610Z,100.00
2022-12-29T20:40:29.428Z,100.00
2022-12-29T20:42:56.232Z,100.00
2022-12-29T20:45:23.031Z,100.00
2022-12-29T20:47:49.727Z,100.00
2022-12-29T20:50:16.555Z,100.00
2022-12-29T20:52:43.292Z,100.00
2022-12-29T20:55:10.039Z,100.00
2022-12-29T20:58:05.659Z,100.00
2022-12-29T21:00:23.821Z,100.00
2022-12-29T21:02:52.560Z,100.00
2022-12-29T21:05:24.028Z,100.00
2022-12-29T21:07:52.424Z,100.00
2022-12-29T21:10:19.344Z,100.00
2022-12-29T21:12:46.486Z,100.00
2022-12-29T21:15:15.521Z,100.00
2022-12-29T21:17:43.892Z,100.00
2022-12-29T21:20:20.297Z,100.00
2022-12-29T21:22:48.115Z,100.00
2022-12-29T21:25:14.913Z,100.00
2022-12-29T21:27:44.599Z,100.00
2022-12-29T21:30:12.527Z,100.00
2022-12-29T21:32:40.316Z,100.00
2022-12-29T21:35:09.255Z,100.00
2022-12-29T21:37:36.616Z,100.00
2022-12-29T21:40:04.644Z,100.00
2022-12-29T21:42:31.842Z,100.00
2022-12-29T21:45:20.863Z,100.00
2022-12-29T21:48:07.705Z,100.00
2022-12-29T21:50:58.107Z,100.00
2022-12-29T21:53:37.898Z,100.00
2022-12-29T21:56:09.023Z,100.00
2022-12-29T21:58:56.448Z,100.00
2022-12-29T22:01:42.507Z,100.00
2022-12-29T22:04:31.071Z,100.00
2022-12-29T22:07:16.498Z,100.00
2022-12-29T22:10:01.926Z,100.00
2022-12-29T22:12:49.689Z,100.00
2022-12-29T22:15:17.231Z,100.00
2022-12-29T22:17:48.835Z,100.00
2022-12-29T22:20:17.465Z,100.00
2022-12-29T22:22:44.289Z,100.00
2022-12-29T22:25:13.831Z,100.00
2022-12-29T22:27:41.017Z,100.00
2022-12-29T22:30:08.720Z,100.00
2022-12-29T22:32:35.779Z,100.00
2022-12-29T22:35:07.710Z,100.00
2022-12-29T22:37:37.275Z,100.00
2022-12-29T22:40:06.107Z,100.00
2022-12-29T22:42:33.299Z,100.00
2022-12-29T22:45:00.053Z,100.00
2022-12-29T22:47:26.864Z,100.00
2022-12-29T22:49:53.670Z,100.00
2022-12-29T22:52:20.532Z,100.00
2022-12-29T22:54:47.312Z,100.00
2022-12-29T22:57:14.090Z,100.00
2022-12-29T22:59:40.768Z,100.00
2022-12-29T23:02:07.653Z,100.00
2022-12-29T23:05:02.484Z,100.00
2022-12-29T23:07:21.745Z,100.00
2022-12-29T23:09:48.538Z,100.00
2022-12-29T23:12:15.323Z,100.00
2022-12-29T23:14:42.151Z,100.00
2022-12-29T23:17:08.964Z,100.00
2022-12-29T23:19:35.720Z,100.00
2022-12-29T23:22:02.476Z,100.00
2022-12-29T23:24:29.291Z,100.00
2022-12-29T23:26:56.074Z,100.00
2022-12-29T23:29:22.876Z,100.00
2022-12-29T23:31:49.763Z,100.00
2022-12-29T23:34:17.344Z,100.00
2022-12-29T23:36:44.157Z,100.00
2022-12-29T23:39:18.582Z,100.00
2022-12-29T23:41:45.503Z,100.00
2022-12-29T23:44:12.243Z,100.00
2022-12-29T23:46:40.844Z,100.00
2022-12-29T23:49:10.681Z,100.00
2022-12-29T23:51:37.499Z,100.00
2022-12-29T23:54:04.682Z,100.00
2022-12-29T23:56:32.030Z,100.00
2022-12-29T23:58:59.154Z,100.00
